Flight Track Log - Related Links

Times and Time Zones

All times are in EST time to prevent confusion due to time zone crossing. See the UAL1116 flight status page for this flight to view local times or setup timezone preferences in your user account.

Time Position Orientation Groundspeed Altitude Reporting Facility
EST Latitude Longitude Course Direction KTS MPH feet Rate Location/Type
Tue 06:35:05 PM 42.3833 -71.0167 261° West 143 165 1,000  Level KA90
Tue 06:36:49 PM 42.4036 -71.1208 285° West 219 252 7,300 4,084 Climbing Boston Center
Tue 06:37:51 PM 42.3683 -71.1919 236° Southwest 228 262 12,300 3,967 Climbing Boston Center
Tue 06:38:50 PM 42.3458 -71.2808 251° West 255 293 15,300 1,850 Climbing Boston Center
Tue 06:39:51 PM 42.3156 -71.3786 247° West 275 316 16,000 339 Climbing Boston Center
Tue 06:40:00 PM 42.1449 -71.2081 261° West  Level FlightAware Approximate
Tue 06:40:54 PM 42.2878 -71.4767 249° West 280 322 16,000  Level Boston Center
Tue 06:41:55 PM 42.2603 -71.5747 249° West 279 321 16,000  Level Boston Center
Tue 06:42:56 PM 42.2328 -71.6717 249° West 278 320 16,000  Level Boston Center
Tue 06:43:56 PM 42.2042 -71.7750 250° West 276 318 16,000  Level Boston Center
Tue 06:44:57 PM 42.1756 -71.8736 249° West 281 323 16,000  Level Boston Center
Tue 06:45:58 PM 42.1467 -71.9778 250° West 294 338 16,000  Level Boston Center
Tue 06:46:59 PM 42.1181 -72.0769 249° West 285 328 16,000  Level Boston Center
Tue 06:47:58 PM 42.0897 -72.1769 249° West 284 327 16,000  Level Boston Center
Tue 06:48:59 PM 42.0583 -72.2839 248° West 285 328 16,000  Level Boston Center
Tue 06:50:02 PM 42.0294 -72.3833 249° West 285 328 16,000  Level Boston Center
Tue 06:51:03 PM 42.0017 -72.4817 249° West 282 325 16,000  Level Boston Center
Tue 06:52:04 PM 41.9722 -72.5825 249° West 288 331 16,000  Level Boston Center
Tue 06:53:04 PM 41.9436 -72.6803 249° West 292 336 16,000  Level Boston Center
Tue 06:54:05 PM 41.9206 -72.7731 252° West 252 290 16,000  Level Boston Center
Tue 06:55:06 PM 41.9011 -72.8578 253° West 240 276 16,000  Level Boston Center
Tue 06:56:08 PM 41.8800 -72.9467 252° West 232 267 16,000  Level Boston Center
Tue 06:57:09 PM 41.8608 -73.0283 253° West 232 267 16,000 -50 Level Boston Center
Tue 06:58:08 PM 41.8408 -73.1108 252° West 231 266 15,900 -50 Descending Boston Center
Tue 06:59:09 PM 41.8211 -73.1922 252° West 232 267 15,900  Level Boston Center
Tue 07:00:12 PM 41.8014 -73.2739 252° West 230 265 15,900 48 Level Boston Center
Tue 07:01:13 PM 41.7808 -73.3569 252° West 229 264 16,000 49 Climbing Boston Center
Tue 07:02:14 PM 41.7614 -73.4383 252° West 229 264 16,000  Level Boston Center
Tue 07:03:14 PM 41.7408 -73.5253 252° West 228 262 16,000  Level Boston Center
Tue 07:04:15 PM 41.7192 -73.6047 250° West 228 262 16,000  Level Boston Center
Tue 07:05:16 PM 41.6997 -73.6867 252° West 231 266 16,000  Level Boston Center
Tue 07:06:17 PM 41.6794 -73.7675 251° West 230 265 16,000  Level Boston Center
Tue 07:07:17 PM 41.6586 -73.8503 251° West 234 269 16,000  Level Boston Center
Tue 07:08:21 PM 41.6381 -73.9383 253° West 232 267 16,000 -242 Level Boston Center
Tue 07:09:21 PM 41.6186 -74.0181 252° West 226 260 15,500 -1,091 Descending Boston Center
Tue 07:10:22 PM 41.6000 -74.0931 252° West 215 247 13,800 -1,672 Descending Boston Center
Tue 07:11:23 PM 41.5811 -74.1733 253° West 214 246 12,100 -1,525 Descending Boston Center
Tue 07:12:24 PM 41.5631 -74.2522 253° West 223 257 10,700 -1,230 Descending Boston Center
Tue 07:13:25 PM 41.5439 -74.3247 251° West 210 242 9,600 -1,180 Descending Boston Center
Tue 07:14:26 PM 41.4839 -74.3600 204° Southwest 244 281 8,300 -1,300 Descending Boston Center
Tue 07:15:25 PM 41.4153 -74.3892 198° South 241 277 7,000 -634 Descending Boston Center
Tue 07:16:29 PM 41.3500 -74.4178 198° South 247 284 7,000  Level Boston Center
Tue 07:17:30 PM 41.2833 -74.4458 198° South 252 290 7,000 -496 Level Boston Center
Tue 07:18:30 PM 41.2131 -74.4283 169° South 290 334 6,000 -942 Descending Boston Center
Tue 07:19:31 PM 41.1472 -74.3625 143° Southeast 296 341 5,100 -443 Descending Boston Center
Tue 07:20:32 PM 41.0814 -74.2958 143° Southeast 281 323 5,100 -393 Level Boston Center
Tue 07:21:33 PM 41.0211 -74.2358 143° Southeast 273 314 4,300 -492 Descending Boston Center
Tue 07:22:34 PM 40.9678 -74.1828 143° Southeast 266 306 4,100 -98 Descending Boston Center
Tue 07:23:35 PM 40.9161 -74.1325 144° Southeast 246 283 4,100 -344 Level Boston Center
Tue 07:24:36 PM 40.8719 -74.0872 142° Southeast 226 260 3,400 -496 Descending Boston Center
Tue 07:25:36 PM 40.8311 -74.0778 170° South 201 231 3,100 -347 Descending Boston Center
Tue 07:26:37 PM 40.7889 -74.0886 191° South 171 197 2,700 -435 Descending Boston Center
Tue 07:27:40 PM 40.7436 -74.0853 177° South 161 185 2,200 -814 Descending Boston Center
Tue 07:28:57 PM 40.7000 -74.1000 194° South 118 136 800 -832 Descending New York TRACON
Tue 07:29:57 PM 40.7000 -74.1333 270° West 112 129 300 -500 Descending New York TRACON
Tue 07:31:00 PM 40.6833 -74.1667 78° East  Level FlightAware Approximate
Tue 07:38:00 PM 40.6925 -74.1687 78° East  Level Estimated
Tue 07:39:00 PM 40.6925 -74.1687 78° East  Level Estimated

Login

Don't have an account? Register now (free) for customized features, flight alerts, and more!